Time;durP1;ratioP1;P1;durP2;ratioP2;P2;SDS_P1;SDS_P2;PMS_P1;PMS_P2;Temp;Humidity;BMP_temperature;BMP_pressure;BME280_temperature;BME280_humidity;BME280_pressure;Samples;Min_cycle;Max_cycle;Signal;HPM_P1;HPM_P2
2023/04/22 00:00:01;;;;;;;18.93;10.20;;;;;;;;;;10382227;28;20207;-84
2023/04/22 00:05:24;;;;;;;17.87;10.17;;;8.90;24.60;;;;;;10408797;28;20608;-84
2023/04/22 00:10:46;;;;;;;16.67;10.73;;;9.00;26.20;;;;;;10366170;28;20226;-85
2023/04/22 00:16:07;;;;;;;21.23;11.57;;;8.90;27.90;;;;;;10378485;28;20207;-85
2023/04/22 00:21:29;;;;;;;22.73;12.03;;;8.90;29.00;;;;;;10405751;28;20214;-85
2023/04/22 00:26:50;;;;;;;25.40;12.40;;;8.80;29.80;;;;;;10434000;28;20435;-85
2023/04/22 00:32:12;;;;;;;24.67;13.57;;;;;;;;;;10424083;28;20227;-84
2023/04/22 00:37:34;;;;;;;26.07;13.67;;;;;;;;;;10386956;28;20204;-84
2023/04/22 00:42:57;;;;;;;23.90;12.43;;;8.40;12.60;;;;;;10388735;28;20396;-84
2023/04/22 00:48:18;;;;;;;21.20;10.47;;;8.40;14.30;;;;;;10399923;28;20499;-84
2023/04/22 00:53:42;;;;;;;19.17;10.10;;;8.50;27.90;;;;;;10412116;28;20227;-84
2023/04/22 00:59:03;;;;;;;14.97;9.83;;;8.20;15.30;;;;;;10385391;28;20200;-84
2023/04/22 01:04:25;;;;;;;19.77;10.63;;;8.20;15.70;;;;;;10385011;28;20198;-84
2023/04/22 01:09:47;;;;;;;28.03;14.20;;;8.20;20.40;;;;;;10397631;28;20267;-84
2023/04/22 01:15:09;;;;;;;28.13;14.40;;;8.10;23.30;;;;;;10370689;28;20221;-84
2023/04/22 01:20:31;;;;;;;28.00;13.27;;;;;;;;;;10411963;28;20203;-84
2023/04/22 01:25:53;;;;;;;22.30;12.43;;;8.10;36.80;;;;;;10415624;28;20274;-84
2023/04/22 01:31:14;;;;;;;25.70;12.33;;;8.10;34.50;;;;;;10412339;28;20226;-84
2023/04/22 01:36:36;;;;;;;23.83;12.57;;;;;;;;;;10383856;28;20442;-84
2023/04/22 01:41:58;;;;;;;21.63;12.00;;;;;;;;;;10411593;28;20571;-83
2023/04/22 01:47:19;;;;;;;20.77;12.53;;;7.80;26.80;;;;;;10424567;28;20507;-83
2023/04/22 01:52:40;;;;;;;20.57;12.50;;;7.80;22.30;;;;;;10437008;28;20294;-84
2023/04/22 01:58:03;;;;;;;22.10;12.90;;;7.70;21.60;;;;;;10357265;28;20226;-84
2023/04/22 02:03:24;;;;;;;23.17;12.27;;;7.60;23.60;;;;;;10372493;28;20200;-84
2023/04/22 02:08:49;;;;;;;28.37;14.37;;;;;;;;;;10355673;28;20468;-84
2023/04/22 02:14:10;;;;;;;35.90;19.37;;;;;;;;;;10398808;28;20306;-84
2023/04/22 02:19:32;;;;;;;53.03;29.03;;;;;;;;;;10364812;28;20200;-84
2023/04/22 02:24:55;;;;;;;53.60;28.70;;;;;;;;;;10383865;28;20195;-84
2023/04/22 02:30:17;;;;;;;43.47;25.70;;;;;;;;;;10386488;28;20229;-84
2023/04/22 02:35:38;;;;;;;25.93;14.80;;;;;;;;;;10408614;28;20485;-84
2023/04/22 02:41:00;;;;;;;20.83;13.87;;;;;;;;;;10422662;28;20195;-84
2023/04/22 02:46:22;;;;;;;29.60;19.37;;;;;;;;;;10374264;28;20250;-84
2023/04/22 02:51:44;;;;;;;23.73;15.03;;;;;;;;;;10381201;28;20233;-84
2023/04/22 02:57:06;;;;;;;18.80;12.70;;;;;;;;;;10379646;28;20191;-83
2023/04/22 03:02:27;;;;;;;23.97;12.07;;;;;;;;;;10344204;28;20200;-84
2023/04/22 03:07:59;;;;;;;21.90;11.77;;;;;;;;;;10353772;28;20312;-84
2023/04/22 03:13:22;;;;;;;23.67;13.40;;;;;;;;;;10358327;28;20243;-84
2023/04/22 03:18:44;;;;;;;22.27;12.57;;;;;;;;;;10419011;28;20379;-84
2023/04/22 03:24:06;;;;;;;28.73;17.43;;;;;;;;;;10382887;28;20487;-84
2023/04/22 03:29:29;;;;;;;21.43;13.17;;;;;;;;;;10401851;28;20204;-84
2023/04/22 03:34:51;;;;;;;25.17;15.93;;;;;;;;;;10401972;28;20233;-84
2023/04/22 03:40:13;;;;;;;21.87;14.23;;;;;;;;;;10421292;28;20265;-84
2023/04/22 03:45:35;;;;;;;21.53;13.43;;;;;;;;;;10415945;28;20202;-84
2023/04/22 03:51:18;;;;;;;19.60;12.03;;;;;;;;;;10409859;28;20225;-84
2023/04/22 03:56:41;;;;;;;23.10;13.73;;;;;;;;;;10373573;28;20205;-84
2023/04/22 04:02:03;;;;;;;34.90;18.30;;;;;;;;;;10378086;28;20212;-84
2023/04/22 04:07:25;;;;;;;34.47;22.57;;;;;;;;;;10370349;28;20235;-84
2023/04/22 04:12:46;;;;;;;38.47;24.90;;;;;;;;;;10372434;28;20590;-84
2023/04/22 04:18:08;;;;;;;41.17;25.50;;;;;;;;;;10408899;28;20213;-84
2023/04/22 04:23:31;;;;;;;37.83;21.50;;;;;;;;;;10349151;28;20435;-83
2023/04/22 04:28:56;;;;;;;37.67;19.77;;;;;;;;;;10360329;28;20571;-83
2023/04/22 04:34:18;;;;;;;38.63;22.50;;;;;;;;;;10372834;28;20282;-83
2023/04/22 04:39:41;;;;;;;38.27;21.13;;;;;;;;;;10359522;28;20191;-84
2023/04/22 04:45:03;;;;;;;29.40;17.13;;;;;;;;;;10365426;28;20203;-84
2023/04/22 04:50:29;;;;;;;31.63;17.13;;;;;;;;;;10440444;28;20247;-84
2023/04/22 04:55:54;;;;;;;24.67;14.77;;;;;;;;;;10412877;28;20231;-84
2023/04/22 05:01:19;;;;;;;29.43;17.23;;;;;;;;;;10370274;28;20257;-84
2023/04/22 05:06:42;;;;;;;26.37;15.37;;;;;;;;;;10358360;28;20264;-84
2023/04/22 05:12:06;;;;;;;30.37;19.83;;;;;;;;;;10370217;28;20248;-84
2023/04/22 05:17:29;;;;;;;34.33;18.40;;;;;;;;;;10377413;28;20389;-84
2023/04/22 05:22:51;;;;;;;25.03;15.13;;;;;;;;;;10387141;28;20196;-84
2023/04/22 05:28:14;;;;;;;20.50;11.30;;;;;;;;;;10387355;28;20209;-84
2023/04/22 05:33:44;;;;;;;15.97;8.97;;;;;;;;;;10384654;28;20242;-84
2023/04/22 05:39:06;;;;;;;16.37;9.43;;;;;;;;;;10386893;28;20200;-83
2023/04/22 05:44:28;;;;;;;19.27;9.33;;;;;;;;;;10424016;28;20202;-84
2023/04/22 05:49:50;;;;;;;18.57;8.77;;;;;;;;;;10411068;28;20200;-84
2023/04/22 05:55:27;;;;;;;14.33;8.03;;;;;;;;;;10396318;28;20203;-84
2023/04/22 06:00:49;;;;;;;8.93;5.57;;;;;;;;;;10396748;28;20444;-84
2023/04/22 06:06:30;;;;;;;7.73;4.93;;;;;;;;;;10361431;28;20258;-84
2023/04/22 06:11:52;;;;;;;8.60;5.23;;;;;;;;;;10393038;28;20235;-84
2023/04/22 06:17:13;;;;;;;6.78;4.97;;;;;;;;;;10400221;28;20223;-84
2023/04/22 06:22:35;;;;;;;12.07;6.35;;;;;;;;;;10405337;28;20202;-84
2023/04/22 06:27:58;;;;;;;7.63;5.55;;;14.50;53.00;;;;;;10426856;28;20236;-82
2023/04/22 06:33:20;;;;;;;6.65;4.30;;;15.40;41.60;;;;;;10436213;28;20227;-81
2023/04/22 06:38:43;;;;;;;8.38;4.45;;;16.30;18.70;;;;;;10434930;28;20224;-81
2023/04/22 06:44:24;;;;;;;8.48;3.63;;;17.20;15.20;;;;;;10504993;28;20212;-85
2023/04/22 06:50:15;;;;;;;5.93;3.53;;;18.00;12.50;;;;;;10502998;28;20199;-81
2023/04/22 06:55:45;;;;;;;7.15;3.92;;;18.70;10.70;;;;;;10477867;28;20303;-82
2023/04/22 07:01:06;;;;;;;10.63;5.43;;;19.10;9.20;;;;;;10460059;28;20230;-82
2023/04/22 07:06:30;;;;;;;11.05;5.72;;;19.60;7.90;;;;;;10457115;28;20500;-84
2023/04/22 07:11:52;;;;;;;10.88;7.10;;;;;;;;;;10457010;28;20247;-84
2023/04/22 07:17:18;;;;;;;18.05;8.95;;;20.50;4.80;;;;;;10445853;28;20245;-84
2023/04/22 07:22:39;;;;;;;11.65;7.85;;;20.90;3.60;;;;;;10420771;28;20284;-84
2023/04/22 07:28:00;;;;;;;8.38;4.43;;;21.00;4.00;;;;;;10442329;28;20226;-84
2023/04/22 07:33:22;;;;;;;7.00;3.33;;;21.10;17.20;;;;;;10448216;28;20231;-84
2023/04/22 07:38:44;;;;;;;6.22;3.33;;;;;;;;;;10470666;28;20207;-84
2023/04/22 07:44:05;;;;;;;7.07;3.38;;;22.30;21.20;;;;;;10456169;28;20203;-84
2023/04/22 07:49:26;;;;;;;11.32;5.22;;;22.80;1.00;;;;;;10456275;28;20191;-84
2023/04/22 07:54:49;;;;;;;5.50;3.15;;;23.00;1.00;;;;;;10445350;28;20229;-84
2023/04/22 08:00:12;;;;;;;1.77;1.30;;;23.20;1.00;;;;;;10417574;28;20237;-84
2023/04/22 08:05:33;;;;;;;9.15;2.67;;;23.60;1.00;;;;;;10451966;28;20829;-84
2023/04/22 08:10:54;;;;;;;4.20;1.45;;;23.90;1.00;;;;;;10420145;28;20227;-84
2023/04/22 08:16:16;;;;;;;2.70;1.95;;;24.00;1.00;;;;;;10428772;28;20224;-85
2023/04/22 08:21:38;;;;;;;5.07;1.50;;;;;;;;;;10441230;28;20361;-84
2023/04/22 08:27:01;;;;;;;9.63;1.42;;;24.40;15.40;;;;;;10426081;28;20211;-85
2023/04/22 08:32:25;;;;;;;3.72;1.48;;;24.60;1.00;;;;;;10441183;28;20254;-85
2023/04/22 08:37:46;;;;;;;5.95;1.63;;;24.80;1.00;;;;;;10426983;28;20199;-85
2023/04/22 08:43:08;;;;;;;3.75;1.33;;;25.10;1.00;;;;;;10424857;28;20499;-85
2023/04/22 08:48:31;;;;;;;5.45;1.10;;;25.10;1.00;;;;;;10441055;28;20491;-85
2023/04/22 08:53:52;;;;;;;1.50;1.20;;;25.40;1.00;;;;;;10425085;28;20230;-85
2023/04/22 08:59:15;;;;;;;1.52;1.10;;;25.20;1.00;;;;;;10418617;28;20193;-85
2023/04/22 09:04:36;;;;;;;2.53;1.35;;;25.30;1.00;;;;;;10428094;28;20196;-84
2023/04/22 09:09:58;;;;;;;2.83;1.83;;;25.60;1.00;;;;;;10439656;28;20231;-85
2023/04/22 09:15:19;;;;;;;4.28;1.73;;;25.70;1.00;;;;;;10420903;28;20228;-84
2023/04/22 09:20:41;;;;;;;2.25;1.40;;;25.80;1.00;;;;;;10429069;28;20668;-85
2023/04/22 09:26:02;;;;;;;3.50;1.23;;;25.80;1.00;;;;;;10400493;28;20208;-85
2023/04/22 09:31:24;;;;;;;6.57;1.92;;;26.00;1.00;;;;;;10416173;28;20294;-85
2023/04/22 09:36:49;;;;;;;4.07;1.25;;;26.20;1.00;;;;;;10437314;28;20490;-85
2023/04/22 09:42:10;;;;;;;4.85;1.40;;;26.30;1.00;;;;;;10391720;28;20272;-85
2023/04/22 09:47:35;;;;;;;6.70;1.33;;;26.70;1.00;;;;;;10415111;28;20387;-85
2023/04/22 09:52:59;;;;;;;3.22;1.38;;;26.70;1.00;;;;;;10396865;28;20263;-85
2023/04/22 09:58:22;;;;;;;4.00;2.33;;;26.90;1.00;;;;;;10413283;28;20223;-85
2023/04/22 10:03:44;;;;;;;2.65;1.55;;;27.20;1.00;;;;;;10413369;28;20213;-85
2023/04/22 10:09:06;;;;;;;6.35;1.90;;;27.20;1.00;;;;;;10382338;28;20229;-86
2023/04/22 10:14:29;;;;;;;7.35;2.00;;;27.00;1.00;;;;;;10440211;28;20238;-85
2023/04/22 10:19:51;;;;;;;1.88;1.30;;;26.90;1.00;;;;;;10439453;28;20212;-85
2023/04/22 10:25:25;;;;;;;2.70;1.50;;;26.50;1.00;;;;;;10423357;28;20401;-84
2023/04/22 10:30:48;;;;;;;4.90;1.80;;;26.70;1.00;;;;;;10436947;28;20483;-85
2023/04/22 10:36:16;;;;;;;4.25;3.40;;;26.60;1.00;;;;;;10402172;28;20239;-85
2023/04/22 10:41:37;;;;;;;3.75;1.52;;;26.70;1.00;;;;;;10409268;28;20361;-85
2023/04/22 10:46:59;;;;;;;2.67;1.40;;;26.50;1.00;;;;;;10403036;28;20246;-85
2023/04/22 10:52:28;;;;;;;4.15;2.63;;;26.90;1.00;;;;;;10411030;28;20224;-85
2023/04/22 10:57:51;;;;;;;8.10;1.52;;;27.30;1.00;;;;;;10421587;28;20196;-85
2023/04/22 11:03:15;;;;;;;1.63;1.05;;;27.60;1.00;;;;;;10438354;28;20203;-85
2023/04/22 11:08:36;;;;;;;5.00;1.42;;;27.90;1.00;;;;;;10396909;28;20236;-86
2023/04/22 11:13:58;;;;;;;2.30;1.42;;;27.50;1.00;;;;;;10394298;28;20224;-85
2023/04/22 11:19:19;;;;;;;3.65;1.65;;;27.00;1.00;;;;;;10428104;28;20206;-84
2023/04/22 11:24:53;;;;;;;2.35;1.40;;;27.00;1.00;;;;;;10421265;28;20287;-84
2023/04/22 11:30:20;;;;;;;4.32;1.65;;;26.90;1.00;;;;;;10420914;28;20196;-84
2023/04/22 11:35:41;;;;;;;2.03;1.60;;;26.90;1.00;;;;;;10423659;28;20228;-85
2023/04/22 11:41:03;;;;;;;2.75;1.17;;;27.10;1.00;;;;;;10404542;28;20364;-85
2023/04/22 11:46:37;;;;;;;4.10;2.03;;;27.10;1.00;;;;;;10419606;28;20215;-84
2023/04/22 11:51:58;;;;;;;2.63;1.70;;;26.90;1.00;;;;;;10419378;28;20221;-85
2023/04/22 11:57:20;;;;;;;2.45;1.50;;;27.00;1.00;;;;;;10412016;28;20193;-85
2023/04/22 12:02:44;;;;;;;9.50;1.85;;;27.00;1.00;;;;;;10411640;28;20215;-84
2023/04/22 12:08:11;;;;;;;4.50;1.73;;;26.90;1.00;;;;;;10379624;28;20255;-86
2023/04/22 12:13:36;;;;;;;6.50;2.10;;;26.80;1.00;;;;;;10413371;28;20224;-84
2023/04/22 12:18:57;;;;;;;3.03;1.92;;;26.80;1.00;;;;;;10419426;28;20221;-84
2023/04/22 12:24:21;;;;;;;1.40;0.90;;;26.60;1.00;;;;;;10446923;28;20202;-85
2023/04/22 12:29:54;;;;;;;3.83;0.95;;;26.70;1.00;;;;;;10467570;28;20191;-84
2023/04/22 12:35:15;;;;;;;1.27;1.10;;;26.60;1.00;;;;;;10461566;28;20285;-85
2023/04/22 12:40:36;;;;;;;1.92;1.35;;;26.30;1.00;;;;;;10483313;28;20233;-85
2023/04/22 12:45:58;;;;;;;9.90;1.80;;;26.00;1.00;;;;;;10453598;28;20238;-85
2023/04/22 12:51:19;;;;;;;3.35;1.50;;;26.20;1.00;;;;;;10425942;28;20220;-85
2023/04/22 12:56:40;;;;;;;3.33;1.55;;;26.00;1.00;;;;;;10426038;28;20196;-85
2023/04/22 13:02:02;;;;;;;0.90;0.70;;;26.10;1.00;;;;;;10426296;28;20197;-85
2023/04/22 13:07:23;;;;;;;3.30;1.20;;;25.90;1.00;;;;;;10421932;28;20236;-85
2023/04/22 13:12:45;;;;;;;3.65;1.65;;;25.50;1.00;;;;;;10424720;28;20299;-85
2023/04/22 13:18:06;;;;;;;1.70;1.10;;;25.10;1.00;;;;;;10417751;28;20192;-85
2023/04/22 13:23:27;;;;;;;1.20;1.10;;;24.90;1.00;;;;;;10404747;28;20188;-85
2023/04/22 13:28:49;;;;;;;1.88;1.10;;;25.00;1.00;;;;;;10425366;28;20237;-85
2023/04/22 13:34:10;;;;;;;2.08;1.40;;;24.90;1.00;;;;;;10411943;28;20272;-85
2023/04/22 13:39:32;;;;;;;3.53;1.50;;;24.60;1.00;;;;;;10414057;28;20518;-84
2023/04/22 13:44:53;;;;;;;1.38;1.20;;;24.50;1.00;;;;;;10383867;28;20213;-85
2023/04/22 13:50:15;;;;;;;4.38;1.48;;;24.50;1.00;;;;;;10460878;28;20208;-85
2023/04/22 13:55:37;;;;;;;1.48;1.08;;;24.10;1.00;;;;;;10448334;28;20222;-85
2023/04/22 14:00:58;;;;;;;2.17;1.20;;;23.80;1.00;;;;;;10423967;28;20271;-84
2023/04/22 14:06:20;;;;;;;1.52;1.20;;;23.40;1.00;;;;;;10433121;28;20232;-85
2023/04/22 14:11:41;;;;;;;3.20;1.40;;;23.20;1.00;;;;;;10423486;28;20542;-85
2023/04/22 14:17:02;;;;;;;2.28;1.20;;;23.20;1.00;;;;;;10456020;28;20203;-84
2023/04/22 14:22:24;;;;;;;3.22;0.90;;;23.40;1.00;;;;;;10440580;28;20212;-85
2023/04/22 14:27:45;;;;;;;1.20;1.00;;;23.50;1.00;;;;;;10464350;28;20513;-84
2023/04/22 14:33:07;;;;;;;1.65;1.00;;;23.50;1.00;;;;;;10409309;28;20235;-84
2023/04/22 14:38:29;;;;;;;1.25;1.00;;;;;;;;;;10463800;28;20379;-84
2023/04/22 14:43:52;;;;;;;2.80;1.08;;;22.90;1.00;;;;;;10449939;28;20295;-84
2023/04/22 14:49:13;;;;;;;1.30;1.20;;;22.70;1.00;;;;;;10488120;28;20210;-85
2023/04/22 14:54:35;;;;;;;2.83;1.33;;;;;;;;;;10449354;28;20227;-84
2023/04/22 14:59:56;;;;;;;4.57;1.52;;;;;;;;;;10448499;28;20195;-83
2023/04/22 15:05:17;;;;;;;1.30;1.17;;;;;;;;;;10407780;28;20303;-85
2023/04/22 15:10:39;;;;;;;2.00;1.00;;;;;;;;;;10421410;28;20279;-85
2023/04/22 15:16:02;;;;;;;2.70;2.10;;;;;;;;;;10450926;28;20243;-85
2023/04/22 15:21:23;;;;;;;2.65;2.15;;;;;;;;;;10420940;28;20204;-85
2023/04/22 15:26:45;;;;;;;2.33;1.52;;;21.50;1.00;;;;;;10435070;28;20514;-85
2023/04/22 15:32:06;;;;;;;4.28;1.75;;;21.50;1.00;;;;;;10438447;28;20224;-85
2023/04/22 15:37:27;;;;;;;3.45;1.30;;;21.20;1.00;;;;;;10476173;28;20196;-86
2023/04/22 15:42:51;;;;;;;2.13;1.60;;;;;;;;;;10462349;28;20590;-85
2023/04/22 15:48:15;;;;;;;2.28;1.60;;;;;;;;;;10442974;28;20234;-85
2023/04/22 15:53:36;;;;;;;3.63;2.55;;;20.80;17.40;;;;;;10476615;28;20234;-84
2023/04/22 15:58:57;;;;;;;7.07;2.30;;;20.80;1.70;;;;;;10475832;28;20401;-85
2023/04/22 16:04:19;;;;;;;3.08;2.20;;;20.50;1.00;;;;;;10452010;28;20372;-85
2023/04/22 16:09:41;;;;;;;3.30;2.28;;;20.40;1.70;;;;;;10442050;28;20229;-85
2023/04/22 16:15:03;;;;;;;4.28;1.42;;;20.20;1.60;;;;;;10410820;28;20224;-85
2023/04/22 16:20:24;;;;;;;2.80;1.85;;;20.00;2.60;;;;;;10441511;28;20203;-85
2023/04/22 16:25:45;;;;;;;2.85;1.92;;;19.80;2.20;;;;;;10465663;28;20206;-85
2023/04/22 16:31:07;;;;;;;3.05;2.00;;;19.70;2.70;;;;;;10471394;28;20319;-85
2023/04/22 16:36:29;;;;;;;2.55;1.70;;;19.50;2.60;;;;;;10402564;28;20534;-85
2023/04/22 16:41:50;;;;;;;3.90;2.20;;;19.40;3.40;;;;;;10400402;28;20534;-85
2023/04/22 16:47:12;;;;;;;7.35;2.22;;;19.30;3.40;;;;;;10406446;28;20203;-83
2023/04/22 16:52:33;;;;;;;3.53;2.40;;;19.40;3.40;;;;;;10467672;28;20231;-84
2023/04/22 16:57:56;;;;;;;2.95;2.20;;;19.30;3.70;;;;;;10453539;28;20199;-84
2023/04/22 17:03:19;;;;;;;7.05;2.72;;;;;;;;;;10436292;28;20254;-84
2023/04/22 17:08:41;;;;;;;6.25;2.75;;;18.90;21.10;;;;;;10411568;28;20239;-84
2023/04/22 17:14:02;;;;;;;2.38;2.05;;;19.00;19.70;;;;;;10405102;28;20238;-84
2023/04/22 17:19:23;;;;;;;3.47;2.20;;;18.80;20.20;;;;;;10440183;28;20204;-85
2023/04/22 17:24:45;;;;;;;6.10;2.72;;;16.90;9.10;;;;;;10444124;28;20206;-84
2023/04/22 17:30:06;;;;;;;5.53;2.60;;;18.40;4.50;;;;;;10439284;28;20196;-84
2023/04/22 17:35:28;;;;;;;5.13;3.28;;;18.20;5.10;;;;;;10448315;28;20617;-84
2023/04/22 17:40:49;;;;;;;13.82;3.33;;;18.00;5.60;;;;;;10438820;28;20219;-84
2023/04/22 17:46:11;;;;;;;10.48;2.90;;;17.90;5.90;;;;;;10452744;28;20188;-83
2023/04/22 17:51:32;;;;;;;6.25;3.47;;;17.70;6.10;;;;;;10452050;28;20209;-84
2023/04/22 17:56:54;;;;;;;8.35;2.88;;;17.60;6.40;;;;;;10451787;28;20221;-84
2023/04/22 18:02:15;;;;;;;8.40;3.55;;;17.40;6.70;;;;;;10462866;28;20574;-86
2023/04/22 18:07:38;;;;;;;4.30;3.17;;;17.40;6.80;;;;;;10437675;28;20243;-84
2023/04/22 18:12:59;;;;;;;5.70;3.60;;;17.30;7.00;;;;;;10436420;28;20225;-84
2023/04/22 18:18:20;;;;;;;4.82;3.70;;;17.10;7.50;;;;;;10417563;28;20196;-84
2023/04/22 18:23:41;;;;;;;10.15;3.67;;;17.10;7.70;;;;;;10429939;28;20384;-84
2023/04/22 18:29:04;;;;;;;11.05;5.97;;;17.00;7.90;;;;;;10436225;28;20518;-84
2023/04/22 18:34:27;;;;;;;16.98;9.40;;;16.80;8.20;;;;;;10382626;28;20220;-83
2023/04/22 18:39:48;;;;;;;25.15;13.55;;;16.60;8.70;;;;;;10437242;28;20203;-84
2023/04/22 18:45:10;;;;;;;16.48;9.90;;;16.50;9.30;;;;;;10430963;28;20223;-84
2023/04/22 18:50:32;;;;;;;10.68;6.43;;;;;;;;;;10449859;28;20383;-84
2023/04/22 18:55:53;;;;;;;8.55;5.18;;;16.20;37.70;;;;;;10449514;28;20222;-83
2023/04/22 19:01:15;;;;;;;9.65;6.00;;;16.00;12.30;;;;;;10422922;28;20523;-83
2023/04/22 19:06:36;;;;;;;11.00;6.65;;;15.80;13.00;;;;;;10452359;28;20544;-84
2023/04/22 19:11:58;;;;;;;13.27;7.82;;;15.80;13.70;;;;;;10421498;28;20449;-84
2023/04/22 19:17:20;;;;;;;11.85;6.93;;;15.70;14.40;;;;;;10389198;28;20557;-84
2023/04/22 19:22:43;;;;;;;15.15;8.13;;;15.60;15.40;;;;;;10398888;28;20238;-84
2023/04/22 19:28:04;;;;;;;28.42;13.93;;;15.60;17.30;;;;;;10414374;28;20274;-84
2023/04/22 19:33:26;;;;;;;28.70;14.23;;;15.40;18.40;;;;;;10417441;28;20229;-84
2023/04/22 19:38:47;;;;;;;19.02;10.13;;;15.30;20.80;;;;;;10424570;28;20235;-84
2023/04/22 19:44:08;;;;;;;17.10;9.25;;;15.30;24.80;;;;;;10402312;28;20215;-84
2023/04/22 19:49:31;;;;;;;18.38;10.68;;;15.20;28.00;;;;;;10425954;28;20212;-84
2023/04/22 19:54:57;;;;;;;16.98;10.75;;;15.10;41.30;;;;;;10442154;28;20231;-84
2023/04/22 20:00:19;;;;;;;19.75;12.43;;;15.10;56.20;;;;;;10405225;28;20219;-83
2023/04/22 20:05:42;;;;;;;18.35;11.00;;;15.00;62.00;;;;;;10411858;28;20254;-84
2023/04/22 20:11:04;;;;;;;16.95;10.43;;;14.90;81.30;;;;;;10455946;28;20516;-83
2023/04/22 20:16:27;;;;;;;15.30;9.30;;;14.80;90.50;;;;;;10444168;28;20221;-83
2023/04/22 20:21:50;;;;;;;16.90;8.80;;;14.50;86.00;;;;;;10426788;28;20207;-85
2023/04/22 20:27:11;;;;;;;21.90;10.63;;;;;;;;;;10427979;28;20281;-84
2023/04/22 20:32:33;;;;;;;14.63;9.35;;;;;;;;;;10427558;28;20237;-84
2023/04/22 20:37:57;;;;;;;19.10;11.27;;;;;;;;;;10429143;28;20213;-84
2023/04/22 20:43:18;;;;;;;22.88;10.35;;;;;;;;;;10443715;28;20271;-84
2023/04/22 20:48:41;;;;;;;21.08;11.80;;;;;;;;;;10442537;28;20330;-84
2023/04/22 20:54:03;;;;;;;25.25;14.18;;;;;;;;;;10439020;28;20230;-85
2023/04/22 20:59:25;;;;;;;33.00;19.52;;;;;;;;;;10468077;28;20190;-84
2023/04/22 21:04:46;;;;;;;37.10;21.15;;;13.60;82.80;;;;;;10453931;28;20757;-85
2023/04/22 21:10:08;;;;;;;31.70;19.83;;;13.60;88.20;;;;;;10426903;28;20196;-84
2023/04/22 21:15:30;;;;;;;37.67;20.75;;;13.50;90.30;;;;;;10384405;28;20230;-84
2023/04/22 21:20:52;;;;;;;41.15;20.48;;;13.40;91.90;;;;;;10385592;28;20428;-84
2023/04/22 21:26:15;;;;;;;34.60;18.23;;;13.30;89.90;;;;;;10409097;28;20524;-84
2023/04/22 21:31:37;;;;;;;32.20;19.13;;;13.20;92.10;;;;;;10398467;28;20199;-84
2023/04/22 21:36:58;;;;;;;50.63;22.15;;;13.10;92.30;;;;;;10389826;28;20222;-84
2023/04/22 21:42:20;;;;;;;35.88;18.70;;;13.00;91.10;;;;;;10480448;28;20194;-84
2023/04/22 21:47:41;;;;;;;35.60;18.95;;;12.90;91.70;;;;;;10452088;28;20442;-84
2023/04/22 21:53:03;;;;;;;32.53;18.23;;;12.90;92.30;;;;;;10453893;28;20232;-84
2023/04/22 21:58:24;;;;;;;34.13;17.73;;;12.80;92.60;;;;;;10455940;28;20238;-83
2023/04/22 22:03:46;;;;;;;33.97;17.25;;;12.70;91.30;;;;;;10465348;28;20198;-83
2023/04/22 22:09:07;;;;;;;34.13;17.95;;;12.70;92.60;;;;;;10453723;28;20415;-84
2023/04/22 22:14:28;;;;;;;38.28;19.55;;;12.60;93.30;;;;;;10438475;28;20454;-83
2023/04/22 22:19:50;;;;;;;36.83;19.98;;;12.40;93.50;;;;;;10423374;28;20197;-84
2023/04/22 22:25:14;;;;;;;39.85;20.63;;;12.30;94.00;;;;;;10423287;28;20275;-84
2023/04/22 22:30:36;;;;;;;34.42;20.90;;;12.30;94.60;;;;;;10404133;28;20531;-84
2023/04/22 22:35:57;;;;;;;35.97;19.02;;;12.20;94.80;;;;;;10396265;28;20268;-84
2023/04/22 22:41:18;;;;;;;31.92;18.67;;;12.10;94.10;;;;;;10403329;28;20197;-84
2023/04/22 22:46:40;;;;;;;29.40;18.70;;;12.20;95.80;;;;;;10427553;28;20200;-83
2023/04/22 22:52:01;;;;;;;30.80;17.88;;;12.00;93.40;;;;;;10436560;28;20282;-84
2023/04/22 22:57:23;;;;;;;32.40;18.23;;;12.00;94.30;;;;;;10436486;28;20515;-84
2023/04/22 23:02:44;;;;;;;27.05;16.23;;;12.00;95.00;;;;;;10395228;28;20273;-84
2023/04/22 23:08:06;;;;;;;25.70;16.63;;;12.00;92.60;;;;;;10398084;28;20249;-84
2023/04/22 23:13:27;;;;;;;24.83;15.32;;;12.00;92.10;;;;;;10419951;28;20309;-84
2023/04/22 23:18:50;;;;;;;23.77;14.65;;;12.00;92.90;;;;;;10408084;28;20194;-84
2023/04/22 23:24:13;;;;;;;25.20;13.98;;;12.00;92.80;;;;;;10421344;28;20398;-83
2023/04/22 23:29:35;;;;;;;23.85;13.88;;;11.80;93.80;;;;;;10422346;28;20611;-84
2023/04/22 23:34:58;;;;;;;20.70;13.93;;;11.80;92.90;;;;;;10462361;28;20230;-84
2023/04/22 23:40:19;;;;;;;26.48;12.80;;;11.80;93.10;;;;;;10477463;28;20191;-84
2023/04/22 23:45:40;;;;;;;24.13;13.00;;;11.70;93.20;;;;;;10442845;28;20214;-84
2023/04/22 23:51:03;;;;;;;20.08;12.18;;;;;;;;;;10462904;28;20270;-84
2023/04/22 23:56:25;;;;;;;21.42;11.98;;;11.60;94.90;;;;;;10415181;28;20227;-84
